Boaz, AL

5:47 PM CST on March 03, 2015 (GMT -0600)
Scottsboro | Change Station
CLOSE
Current Station
Airport
Location: Scottsboro,
Elevation: 650 ft
Nearby Weather Stations

Elev 650 ft 34.69 °N, 86.01 °W | Updated 12 minutes ago

Fog
Fog
52 °F
Feels Like 52 °F
N
0
Wind Variable Wind from North

Today
High -- | Low -- °F
--% Chance of Precip.
Yesterday
High -- | Low -- °F
Precip. -- in
6:11 AM 5:42 PM
Waxing Gibbous, 97% visible
Pressure 30.04 in
Visibility 0.8 miles
Clouds Overcast 200 ft
Dew Point 52 °F
Humidity 100%
Rainfall 0.14 in
Snow Depth Not available.
UV 0 out of 12
Pollen 3.30 out of 12
Air Quality Not available.
Flu Activity Not available.
METAR K4A6 032335Z AUTO 00000KT 3/4SM BR OVC002 11/11 A3004 RMK AO2

More Conditions Fewer Conditions

Pressure 30.04 in
Visibility 0.8 miles
Clouds Overcast 200 ft
Dew Point 52 °F
Humidity 100%
Rainfall 0.14 in
Snow Depth Not available.
UV 0 out of 12
Pollen 3.30 out of 12
Air Quality Not available.
Flu Activity Not available.
METAR K4A6 032335Z AUTO 00000KT 3/4SM BR OVC002 11/11 A3004 RMK AO2

More Conditions Fewer Conditions

10-Day Weather Forecast

Almanac

Astronomy

Mar. 03, 2015 Rise Set
Actual Time
Civil Twilight
Nautical Twilight
Astronomical Twilight
Moon
Length of Visible Light
Length of Day
Tomorrow will be .
, % of the Moon is Illuminated

Today's Extremes

State Highs State Lows

Community

WunderPhotos

Upload Photos

1,802,305 photos uploaded!

WunderBlogs® & News

Nearby

Air Quality

  Air Quality AQ Index Pollutant
Not available.

Snow Depth

Station Depth Elevation

Earthquake Activity

City Distance Mag. Time & Date
Minimum magnitude displayed is 2.5.

Coastal Water Temperatures

Place Temperature

Nearby Weather Stations